Time;durP1;ratioP1;P1;durP2;ratioP2;P2;SDS_P1;SDS_P2;PMS_P1;PMS_P2;Temp;Humidity;BMP_temperature;BMP_pressure;BME280_temperature;BME280_humidity;BME280_pressure;Samples;Min_cycle;Max_cycle;Signal;HPM_P1;HPM_P2
2021/03/17 00:00:48;;;;;;;2.80;1.50;;;5.10;93.30;;;;;;4994111;28;20089;-49
2021/03/17 00:03:14;;;;;;;3.80;1.60;;;5.10;93.20;;;;;;4991236;28;20050;-50
2021/03/17 00:05:42;;;;;;;3.53;1.60;;;5.10;93.30;;;;;;4996702;28;20777;-47
2021/03/17 00:08:08;;;;;;;2.63;1.55;;;5.00;93.30;;;;;;4993824;28;20050;-48
2021/03/17 00:10:37;;;;;;;4.38;1.90;;;5.10;93.40;;;;;;4995237;28;20062;-54
2021/03/17 00:13:04;;;;;;;4.45;1.60;;;5.00;93.30;;;;;;4998723;28;20050;-47
2021/03/17 00:15:33;;;;;;;6.88;1.70;;;5.10;93.50;;;;;;4990575;28;20050;-48
2021/03/17 00:17:59;;;;;;;3.38;1.88;;;5.00;93.40;;;;;;4997201;28;20542;-49
2021/03/17 00:20:27;;;;;;;3.13;1.52;;;5.10;93.30;;;;;;4994555;28;20132;-51
2021/03/17 00:22:54;;;;;;;5.45;1.70;;;5.10;93.40;;;;;;4998440;28;20092;-47
2021/03/17 00:25:22;;;;;;;3.30;1.67;;;5.10;93.20;;;;;;4992411;28;20154;-47
2021/03/17 00:27:48;;;;;;;3.10;1.67;;;5.10;93.20;;;;;;5001933;28;20459;-50
2021/03/17 00:30:15;;;;;;;5.03;1.65;;;5.00;93.40;;;;;;4997255;28;20073;-51
2021/03/17 00:32:40;;;;;;;3.92;1.42;;;5.00;93.00;;;;;;4993449;28;20041;-48
2021/03/17 00:35:07;;;;;;;3.88;1.50;;;5.00;92.90;;;;;;4997471;28;20054;-49
2021/03/17 00:37:34;;;;;;;5.85;1.40;;;5.00;93.00;;;;;;4999425;28;20060;-47
2021/03/17 00:40:00;;;;;;;4.05;1.52;;;5.00;93.00;;;;;;4995541;28;20050;-49
2021/03/17 00:42:28;;;;;;;3.25;1.30;;;5.00;93.10;;;;;;4998365;28;20108;-51
2021/03/17 00:44:54;;;;;;;5.15;1.83;;;5.00;93.00;;;;;;4995913;28;20757;-47
2021/03/17 00:47:21;;;;;;;3.70;1.65;;;5.00;93.10;;;;;;5003879;28;20046;-47
2021/03/17 00:49:46;;;;;;;7.30;1.70;;;5.00;92.90;;;;;;4980097;28;20100;-46
2021/03/17 00:52:12;;;;;;;4.93;1.80;;;5.00;93.00;;;;;;4998293;28;20086;-48
2021/03/17 00:54:39;;;;;;;3.35;1.50;;;5.00;93.00;;;;;;4976918;28;20042;-49
2021/03/17 00:57:05;;;;;;;3.67;1.70;;;5.00;92.90;;;;;;4996795;28;20065;-47
2021/03/17 00:59:30;;;;;;;4.65;1.70;;;5.00;92.90;;;;;;4997298;28;20072;-49
2021/03/17 01:01:57;;;;;;;4.15;1.70;;;4.90;93.00;;;;;;4993182;28;20057;-46
2021/03/17 01:04:24;;;;;;;5.05;1.88;;;4.90;93.10;;;;;;5001400;28;20045;-49
2021/03/17 01:06:50;;;;;;;5.57;1.90;;;4.90;93.40;;;;;;4998263;28;20060;-47
2021/03/17 01:09:16;;;;;;;5.60;2.05;;;4.90;93.20;;;;;;4991999;28;20042;-46
2021/03/17 01:11:42;;;;;;;4.70;1.60;;;4.90;93.30;;;;;;4992795;28;20046;-47
2021/03/17 01:14:08;;;;;;;4.10;1.58;;;4.90;93.40;;;;;;4995788;28;20458;-49
2021/03/17 01:16:33;;;;;;;7.25;2.00;;;4.90;93.60;;;;;;4999777;28;20045;-47
2021/03/17 01:18:59;;;;;;;5.57;2.10;;;4.90;93.50;;;;;;4998778;28;20189;-53
2021/03/17 01:21:25;;;;;;;3.38;1.65;;;4.90;93.50;;;;;;4995223;28;20514;-46
2021/03/17 01:23:51;;;;;;;4.75;1.77;;;4.90;93.40;;;;;;4992829;28;20042;-46
2021/03/17 01:26:17;;;;;;;4.20;1.80;;;4.90;93.20;;;;;;4994324;28;20070;-47
2021/03/17 01:28:43;;;;;;;3.55;1.77;;;4.90;93.40;;;;;;5005094;28;20581;-48
2021/03/17 01:31:09;;;;;;;4.32;2.00;;;4.90;93.40;;;;;;5000018;28;20180;-50
2021/03/17 01:33:35;;;;;;;5.97;2.28;;;4.90;93.30;;;;;;4995658;28;20061;-47
2021/03/17 01:36:00;;;;;;;5.10;2.55;;;4.90;93.40;;;;;;4994009;28;20051;-47
2021/03/17 01:38:26;;;;;;;4.28;2.55;;;4.90;93.40;;;;;;4996354;28;20453;-53
2021/03/17 01:40:54;;;;;;;5.97;2.33;;;4.90;93.50;;;;;;5000343;28;20049;-51
2021/03/17 01:43:20;;;;;;;7.78;2.78;;;4.90;93.50;;;;;;4996055;28;20188;-48
2021/03/17 01:45:46;;;;;;;6.00;2.58;;;4.90;93.50;;;;;;5001106;28;20049;-46
2021/03/17 01:48:13;;;;;;;5.97;2.20;;;4.80;93.50;;;;;;4995081;28;20074;-47
2021/03/17 01:50:42;;;;;;;6.50;2.53;;;4.90;93.40;;;;;;4996015;28;20101;-51
2021/03/17 01:53:11;;;;;;;6.72;2.50;;;4.90;93.50;;;;;;4991837;28;20054;-50
2021/03/17 01:55:38;;;;;;;7.13;2.33;;;4.90;93.40;;;;;;4994803;28;20058;-48
2021/03/17 01:58:04;;;;;;;3.83;2.13;;;4.90;93.30;;;;;;4993996;28;20522;-52
2021/03/17 02:00:31;;;;;;;3.13;1.90;;;4.90;93.30;;;;;;4997868;28;20054;-51
2021/03/17 02:02:57;;;;;;;4.82;2.20;;;4.90;93.30;;;;;;4996650;28;20089;-49
2021/03/17 02:05:29;;;;;;;4.15;2.00;;;4.90;93.30;;;;;;4995417;28;20046;-46
2021/03/17 02:07:58;;;;;;;4.82;2.25;;;4.90;93.40;;;;;;4993621;28;20290;-50
2021/03/17 02:10:24;;;;;;;5.15;2.42;;;4.90;93.40;;;;;;4998582;28;20042;-50
2021/03/17 02:13:02;;;;;;;5.72;1.95;;;4.90;93.40;;;;;;4997477;28;20049;-49
2021/03/17 02:15:50;;;;;;;6.78;2.45;;;4.90;93.40;;;;;;4999583;28;20073;-48
2021/03/17 02:18:34;;;;;;;4.65;2.10;;;4.90;93.30;;;;;;4989035;28;20038;-49
2021/03/17 02:21:03;;;;;;;4.63;2.28;;;4.80;93.30;;;;;;4997511;28;20057;-49
2021/03/17 02:23:37;;;;;;;6.25;2.53;;;4.80;93.30;;;;;;4993617;28;20129;-52
2021/03/17 02:26:32;;;;;;;6.10;1.90;;;4.80;93.30;;;;;;4993912;28;20050;-53
2021/03/17 02:29:29;;;;;;;5.63;1.90;;;4.80;93.10;;;;;;4924800;29;20089;-52
2021/03/17 02:31:58;;;;;;;3.75;1.55;;;4.60;92.70;;;;;;4924952;29;20058;-50
2021/03/17 02:34:25;;;;;;;5.55;1.88;;;4.60;92.70;;;;;;4923200;29;20051;-51
2021/03/17 02:36:56;;;;;;;4.28;1.50;;;4.50;92.80;;;;;;4924954;29;20138;-50
2021/03/17 02:39:27;;;;;;;3.67;1.30;;;4.50;92.70;;;;;;4925290;29;20051;-50
2021/03/17 02:42:24;;;;;;;4.03;1.30;;;4.50;92.90;;;;;;4929742;29;20523;-48
2021/03/17 02:44:56;;;;;;;5.88;1.50;;;4.50;92.80;;;;;;4891703;29;20062;-47
2021/03/17 02:47:24;;;;;;;;;;;4.50;92.80;;;;;;4892517;29;20465;-49
2021/03/17 02:49:55;;;;;;;7.57;1.60;;;4.40;92.90;;;;;;4893537;29;19978;-52
2021/03/17 02:52:22;;;;;;;8.65;1.60;;;4.50;92.90;;;;;;4897086;29;21140;-48
2021/03/17 02:54:49;;;;;;;4.95;1.50;;;4.40;92.90;;;;;;4891405;29;20056;-47
2021/03/17 02:57:21;;;;;;;6.82;1.85;;;4.40;92.90;;;;;;4895000;29;20493;-46
2021/03/17 02:59:52;;;;;;;;;;;4.30;92.90;;;;;;4900760;29;20222;-49
2021/03/17 03:02:19;;;;;;;5.50;2.17;;;4.30;92.90;;;;;;4895442;29;19938;-47
2021/03/17 03:04:49;;;;;;;6.40;1.88;;;4.20;92.90;;;;;;4902098;29;20053;-50
2021/03/17 03:07:18;;;;;;;7.07;2.30;;;4.30;93.10;;;;;;4931179;29;20163;-52
2021/03/17 03:09:46;;;;;;;7.82;2.20;;;4.30;93.20;;;;;;4932018;29;20057;-46
2021/03/17 03:12:12;;;;;;;6.30;2.20;;;4.30;93.40;;;;;;4934261;29;20091;-46
2021/03/17 03:14:45;;;;;;;7.47;2.40;;;4.30;93.30;;;;;;4933824;29;20110;-51
2021/03/17 03:17:13;;;;;;;11.52;2.55;;;4.40;93.30;;;;;;4936107;28;20055;-46
2021/03/17 03:19:51;;;;;;;5.20;2.15;;;4.40;93.30;;;;;;4937528;29;20054;-49
2021/03/17 03:22:18;;;;;;;5.90;2.00;;;4.40;93.20;;;;;;4978084;28;20054;-46
2021/03/17 03:24:45;;;;;;;4.97;2.40;;;4.30;93.20;;;;;;4990111;28;20052;-46
2021/03/17 03:27:13;;;;;;;8.77;2.55;;;4.30;93.30;;;;;;4992951;28;20775;-49
2021/03/17 03:29:39;;;;;;;7.22;2.50;;;4.30;93.30;;;;;;4976782;28;20054;-53
2021/03/17 03:32:06;;;;;;;4.95;1.95;;;4.30;93.20;;;;;;4993867;28;20486;-49
2021/03/17 03:34:32;;;;;;;8.00;2.55;;;4.20;93.20;;;;;;4997479;28;20050;-47
2021/03/17 03:36:58;;;;;;;6.55;2.30;;;4.10;93.10;;;;;;4990869;28;20056;-46
2021/03/17 03:39:24;;;;;;;9.35;2.03;;;4.00;93.20;;;;;;4987626;28;20887;-48
2021/03/17 03:41:50;;;;;;;8.43;2.35;;;4.00;93.40;;;;;;4995501;28;20120;-53
2021/03/17 03:44:16;;;;;;;9.55;2.78;;;3.90;93.30;;;;;;4995558;28;20042;-45
2021/03/17 03:46:42;;;;;;;6.55;2.33;;;3.80;93.30;;;;;;5003629;28;20705;-48
2021/03/17 03:49:09;;;;;;;13.10;2.47;;;3.80;93.30;;;;;;4992831;28;20057;-46
2021/03/17 03:51:39;;;;;;;11.00;2.33;;;3.80;93.40;;;;;;4997072;28;20077;-51
2021/03/17 03:54:22;;;;;;;13.15;2.80;;;3.70;93.40;;;;;;4992592;28;20165;-49
2021/03/17 03:57:13;;;;;;;8.20;2.42;;;3.60;93.40;;;;;;4996422;28;20414;-47
2021/03/17 03:59:45;;;;;;;10.07;3.10;;;3.60;93.60;;;;;;4991295;28;20073;-50
2021/03/17 04:02:13;;;;;;;;;;;3.60;93.70;;;;;;5001560;28;20058;-46
2021/03/17 04:04:45;;;;;;;6.57;2.10;;;3.60;93.90;;;;;;4999334;28;19995;-50
2021/03/17 04:07:12;;;;;;;8.80;2.20;;;3.60;93.80;;;;;;4995004;28;20131;-47
2021/03/17 04:09:49;;;;;;;8.82;2.38;;;3.60;93.70;;;;;;4999778;28;20070;-50
2021/03/17 04:12:17;;;;;;;8.73;2.25;;;3.70;93.90;;;;;;4994473;28;20050;-54
2021/03/17 04:14:48;;;;;;;13.23;2.55;;;3.70;93.90;;;;;;4996863;28;20470;-51
2021/03/17 04:17:19;;;;;;;7.43;2.20;;;3.70;94.00;;;;;;5000409;28;20049;-48
2021/03/17 04:19:48;;;;;;;8.35;2.35;;;3.70;93.90;;;;;;4996279;28;20081;-51
2021/03/17 04:22:16;;;;;;;6.68;2.53;;;3.80;93.80;;;;;;4991295;28;20486;-49
2021/03/17 04:24:46;;;;;;;8.18;2.53;;;3.70;93.70;;;;;;4998013;28;20821;-47
2021/03/17 04:27:14;;;;;;;11.05;2.63;;;3.80;94.00;;;;;;4996773;28;20042;-46
2021/03/17 04:29:42;;;;;;;7.55;2.47;;;3.80;93.90;;;;;;4997707;28;20077;-51
2021/03/17 04:32:10;;;;;;;9.20;3.03;;;3.80;94.00;;;;;;5004569;28;20039;-49
2021/03/17 04:34:40;;;;;;;9.73;2.70;;;3.80;93.90;;;;;;5002939;28;20046;-48
2021/03/17 04:37:06;;;;;;;7.97;2.63;;;3.90;93.80;;;;;;4999698;28;20888;-51
2021/03/17 04:39:37;;;;;;;6.60;2.30;;;3.90;93.70;;;;;;4993946;28;20055;-50
2021/03/17 04:42:03;;;;;;;7.53;2.50;;;3.80;93.60;;;;;;4997209;28;20049;-49
2021/03/17 04:44:30;;;;;;;8.02;2.42;;;3.80;93.50;;;;;;4999917;28;20073;-54
2021/03/17 04:46:57;;;;;;;9.63;2.10;;;3.70;93.50;;;;;;4996333;28;20046;-52
2021/03/17 04:49:25;;;;;;;8.25;2.78;;;3.60;93.50;;;;;;4999269;28;20077;-52
2021/03/17 04:51:52;;;;;;;7.78;2.83;;;3.60;93.60;;;;;;4977817;28;20060;-48
2021/03/17 04:54:18;;;;;;;9.88;2.65;;;3.50;93.60;;;;;;4994288;28;20487;-50
2021/03/17 04:56:45;;;;;;;10.48;4.30;;;3.50;93.80;;;;;;4999759;28;20068;-53
2021/03/17 04:59:17;;;;;;;8.50;3.13;;;3.50;93.90;;;;;;4994609;28;20562;-50
2021/03/17 05:01:44;;;;;;;6.13;2.40;;;3.50;94.00;;;;;;4998162;28;20105;-50
2021/03/17 05:04:12;;;;;;;10.93;3.08;;;3.60;93.80;;;;;;5002751;28;20054;-54
2021/03/17 05:06:49;;;;;;;7.40;2.60;;;3.60;93.90;;;;;;4996076;28;20054;-50
2021/03/17 05:09:18;;;;;;;7.63;2.95;;;3.60;93.90;;;;;;4993091;28;20049;-47
2021/03/17 05:11:46;;;;;;;9.60;2.78;;;3.60;93.80;;;;;;5002818;28;20491;-51
2021/03/17 05:14:14;;;;;;;7.20;2.92;;;3.60;93.80;;;;;;4995634;28;20089;-48
2021/03/17 05:16:41;;;;;;;10.98;2.70;;;3.50;93.80;;;;;;4996969;28;20081;-48
2021/03/17 05:19:08;;;;;;;8.40;2.95;;;3.60;93.80;;;;;;5001891;28;20046;-46
2021/03/17 05:21:35;;;;;;;11.85;2.70;;;3.60;93.90;;;;;;4999663;28;20054;-50
2021/03/17 05:24:02;;;;;;;9.07;2.67;;;3.60;93.90;;;;;;4996407;28;20400;-50
2021/03/17 05:26:29;;;;;;;11.55;3.13;;;3.60;93.90;;;;;;4995550;28;20406;-49
2021/03/17 05:28:59;;;;;;;8.02;3.35;;;3.70;93.90;;;;;;4990534;28;20119;-50
2021/03/17 05:31:26;;;;;;;9.32;2.83;;;3.70;94.00;;;;;;4997859;28;20315;-49
2021/03/17 05:33:52;;;;;;;9.55;3.10;;;3.70;93.90;;;;;;4980306;28;20058;-50
2021/03/17 05:36:18;;;;;;;8.55;3.25;;;3.60;93.80;;;;;;4995089;28;20042;-50
2021/03/17 05:38:44;;;;;;;7.25;3.17;;;3.70;93.80;;;;;;4997693;28;20056;-52
2021/03/17 05:41:10;;;;;;;9.13;2.92;;;3.70;93.80;;;;;;4993806;28;20645;-50
2021/03/17 05:43:37;;;;;;;7.63;2.80;;;3.70;93.90;;;;;;4998371;28;20104;-45
2021/03/17 05:46:07;;;;;;;6.90;3.08;;;3.70;93.90;;;;;;4995859;28;20491;-47
2021/03/17 05:48:34;;;;;;;5.70;2.17;;;3.60;93.90;;;;;;4980345;28;20068;-52
2021/03/17 05:51:04;;;;;;;12.32;3.15;;;3.60;93.80;;;;;;4995781;28;20093;-50
2021/03/17 05:53:32;;;;;;;10.40;3.13;;;3.70;93.90;;;;;;5000640;28;20529;-47
2021/03/17 05:56:01;;;;;;;9.55;2.85;;;3.70;93.90;;;;;;4998635;28;20058;-47
2021/03/17 05:58:28;;;;;;;10.82;3.45;;;3.70;93.90;;;;;;4986298;28;20554;-47
2021/03/17 06:00:54;;;;;;;9.00;3.20;;;3.70;93.90;;;;;;4986599;28;20388;-50
2021/03/17 06:03:21;;;;;;;8.52;2.60;;;3.70;93.90;;;;;;4970104;28;20598;-50
2021/03/17 06:05:47;;;;;;;7.30;2.80;;;3.70;93.60;;;;;;4986567;28;20510;-46
2021/03/17 06:08:16;;;;;;;14.80;2.97;;;3.70;93.50;;;;;;4985346;28;20058;-48
2021/03/17 06:10:46;;;;;;;7.93;2.85;;;3.70;93.40;;;;;;4985091;28;20046;-48
2021/03/17 06:13:14;;;;;;;7.82;2.67;;;3.70;93.40;;;;;;4986536;28;20057;-50
2021/03/17 06:15:45;;;;;;;7.68;2.42;;;3.60;93.30;;;;;;4984902;28;20087;-53
2021/03/17 06:18:22;;;;;;;5.13;2.40;;;3.60;93.40;;;;;;4985401;28;20072;-52
2021/03/17 06:20:49;;;;;;;7.60;3.15;;;3.60;93.40;;;;;;4984997;28;20050;-55
2021/03/17 06:23:15;;;;;;;8.93;2.80;;;3.70;93.50;;;;;;4992793;28;20034;-53
2021/03/17 06:25:45;;;;;;;8.93;3.22;;;3.90;93.60;;;;;;4986899;28;20079;-52
2021/03/17 06:28:14;;;;;;;15.82;3.42;;;3.90;93.40;;;;;;4986304;28;20058;-48
2021/03/17 06:30:41;;;;;;;13.15;3.58;;;4.00;93.40;;;;;;4984248;28;20058;-51
2021/03/17 06:33:07;;;;;;;8.45;3.15;;;4.00;93.40;;;;;;4985691;28;20545;-49
2021/03/17 06:35:33;;;;;;;13.50;3.53;;;4.00;93.30;;;;;;4986282;28;20058;-47
2021/03/17 06:37:59;;;;;;;9.45;3.10;;;4.00;93.20;;;;;;4993642;28;20038;-48
2021/03/17 06:40:29;;;;;;;6.30;2.47;;;4.10;93.00;;;;;;4986797;28;20509;-48
2021/03/17 06:43:11;;;;;;;7.20;2.70;;;4.10;92.80;;;;;;4987636;28;20046;-51
2021/03/17 06:45:37;;;;;;;;;;;4.10;92.80;;;;;;4985573;28;20046;-49
2021/03/17 06:48:28;;;;;;;12.63;2.90;;;4.20;92.50;;;;;;4984936;28;19929;-50
2021/03/17 06:51:19;;;;;;;8.65;3.25;;;4.20;92.70;;;;;;4985970;28;20052;-50
2021/03/17 06:53:47;;;;;;;20.42;8.93;;;4.30;92.60;;;;;;4983693;28;20060;-47
2021/03/17 06:56:14;;;;;;;8.43;2.60;;;4.30;92.30;;;;;;4985619;28;20138;-44
2021/03/17 06:58:42;;;;;;;14.25;6.28;;;4.30;92.50;;;;;;4985714;28;20058;-47
2021/03/17 07:01:36;;;;;;;11.18;3.70;;;4.40;92.40;;;;;;4981901;28;20153;-45
2021/03/17 07:04:14;;;;;;;10.48;3.60;;;4.30;91.80;;;;;;4985215;28;20466;-48
2021/03/17 07:06:42;;;;;;;7.13;2.55;;;4.50;92.20;;;;;;4985116;28;20523;-45
2021/03/17 07:09:25;;;;;;;11.68;2.83;;;4.60;91.90;;;;;;4989920;28;20046;-44
2021/03/17 07:12:12;;;;;;;13.52;3.10;;;4.70;92.00;;;;;;4986152;28;20097;-47
2021/03/17 07:14:44;;;;;;;7.70;2.20;;;4.90;91.90;;;;;;4983868;28;20038;-46
2021/03/17 07:17:26;;;;;;;15.18;7.60;;;4.90;90.90;;;;;;4986167;28;20097;-46
2021/03/17 07:19:52;;;;;;;9.18;2.30;;;5.20;91.50;;;;;;4982635;28;20735;-47
2021/03/17 07:22:19;;;;;;;11.00;3.95;;;5.10;90.60;;;;;;4980962;28;20045;-49
2021/03/17 07:24:47;;;;;;;13.18;3.38;;;5.20;90.70;;;;;;4987325;28;20081;-46
2021/03/17 07:27:25;;;;;;;8.63;1.95;;;5.10;90.50;;;;;;4985420;28;20562;-49
2021/03/17 07:30:01;;;;;;;9.20;2.53;;;5.10;90.80;;;;;;4986687;28;20054;-47
2021/03/17 07:32:28;;;;;;;8.90;2.65;;;5.10;90.30;;;;;;4984621;28;20156;-48
2021/03/17 07:34:54;;;;;;;21.00;10.48;;;5.10;90.60;;;;;;4984307;28;20128;-47
2021/03/17 07:37:26;;;;;;;24.55;11.63;;;5.20;90.60;;;;;;4984487;28;20448;-51
2021/03/17 07:39:58;;;;;;;13.50;4.07;;;5.10;90.10;;;;;;4982383;28;20514;-52
2021/03/17 07:42:27;;;;;;;17.10;8.50;;;5.10;90.40;;;;;;4981981;28;20077;-47
2021/03/17 07:44:54;;;;;;;12.75;2.95;;;5.30;90.70;;;;;;4984267;28;20050;-45
2021/03/17 07:47:21;;;;;;;10.88;3.28;;;5.50;90.20;;;;;;4966750;28;20129;-52
2021/03/17 07:49:49;;;;;;;11.25;2.10;;;5.70;89.70;;;;;;4952259;28;20410;-51
2021/03/17 07:52:21;;;;;;;12.40;4.50;;;6.00;88.00;;;;;;4983446;28;20051;-47
2021/03/17 07:54:53;;;;;;;11.82;2.55;;;6.20;87.00;;;;;;4983212;28;20166;-50
2021/03/17 07:57:23;;;;;;;9.10;2.33;;;6.80;85.20;;;;;;4984460;28;20058;-49
2021/03/17 07:59:49;;;;;;;8.18;2.38;;;7.60;83.60;;;;;;4985187;28;20073;-48
2021/03/17 08:02:17;;;;;;;9.60;1.98;;;8.20;83.40;;;;;;4984263;28;20053;-49
2021/03/17 08:04:44;;;;;;;9.63;2.85;;;8.80;76.20;;;;;;4985664;28;20042;-47
2021/03/17 08:07:11;;;;;;;12.52;2.17;;;8.90;76.20;;;;;;4984732;28;20051;-49
2021/03/17 08:09:38;;;;;;;12.48;3.05;;;9.10;75.60;;;;;;4981698;28;20047;-48
2021/03/17 08:12:09;;;;;;;10.75;2.47;;;9.60;76.50;;;;;;4984047;28;20511;-46
2021/03/17 08:14:40;;;;;;;8.45;2.25;;;10.00;75.90;;;;;;4983625;28;20153;-45
2021/03/17 08:17:12;;;;;;;7.82;1.85;;;10.10;75.40;;;;;;4981655;28;20454;-46
2021/03/17 08:19:38;;;;;;;35.28;23.55;;;9.80;71.20;;;;;;4982812;28;20138;-50
2021/03/17 08:22:12;;;;;;;17.83;7.93;;;9.70;75.60;;;;;;4983269;28;20137;-45
2021/03/17 08:24:39;;;;;;;20.70;13.32;;;9.80;73.30;;;;;;4982651;28;20113;-48
2021/03/17 08:27:08;;;;;;;20.08;9.48;;;9.30;75.10;;;;;;4985193;28;20045;-48
2021/03/17 08:29:39;;;;;;;8.43;2.20;;;9.50;74.10;;;;;;4981628;28;20062;-44
2021/03/17 08:32:07;;;;;;;13.07;3.88;;;9.50;66.40;;;;;;4985375;28;20057;-46
2021/03/17 08:34:34;;;;;;;11.85;4.88;;;10.20;70.00;;;;;;4981675;28;20701;-46
2021/03/17 08:37:05;;;;;;;12.27;3.60;;;10.40;69.10;;;;;;4986331;28;20047;-45
2021/03/17 08:39:34;;;;;;;18.40;10.37;;;10.80;67.00;;;;;;4982378;28;20058;-45
2021/03/17 08:42:01;;;;;;;15.35;6.90;;;11.20;68.80;;;;;;4984729;28;20046;-45
2021/03/17 08:44:39;;;;;;;13.25;5.57;;;11.60;67.50;;;;;;4984767;28;20058;-49
2021/03/17 08:47:13;;;;;;;16.77;6.30;;;11.70;63.00;;;;;;4981345;28;20050;-45
2021/03/17 08:49:43;;;;;;;12.10;2.83;;;11.70;63.00;;;;;;4986061;28;20552;-48
2021/03/17 08:52:16;;;;;;;10.77;4.00;;;12.30;64.30;;;;;;4986137;28;20073;-46
2021/03/17 08:54:47;;;;;;;13.38;6.47;;;12.40;60.70;;;;;;4988306;28;20050;-47
2021/03/17 08:57:15;;;;;;;7.72;2.25;;;12.50;62.10;;;;;;4993293;28;20112;-49
2021/03/17 08:59:42;;;;;;;9.70;2.47;;;12.00;61.10;;;;;;5007092;28;20081;-45
2021/03/17 09:02:21;;;;;;;121.47;101.63;;;11.40;60.00;;;;;;5003599;28;20046;-50
2021/03/17 09:04:49;;;;;;;30.90;22.83;;;10.10;59.00;;;;;;5000992;28;20046;-46
2021/03/17 09:07:16;;;;;;;13.43;3.67;;;9.60;63.30;;;;;;5012908;28;20049;-50
2021/03/17 09:09:45;;;;;;;16.60;8.43;;;9.20;64.40;;;;;;5002715;28;20129;-47
2021/03/17 09:12:12;;;;;;;19.38;11.00;;;8.90;64.80;;;;;;5001694;28;20088;-48
2021/03/17 09:14:38;;;;;;;19.92;10.15;;;8.80;65.40;;;;;;5005936;28;20061;-48
2021/03/17 09:17:14;;;;;;;29.08;21.25;;;8.70;65.50;;;;;;5005022;28;20077;-48
2021/03/17 09:20:09;;;;;;;55.95;42.08;;;8.50;68.60;;;;;;4999523;28;20128;-47
2021/03/17 09:22:45;;;;;;;49.72;33.42;;;8.30;67.30;;;;;;4999941;28;20525;-49
2021/03/17 09:25:31;;;;;;;44.28;31.23;;;8.10;70.00;;;;;;5004722;28;20070;-50
2021/03/17 09:28:09;;;;;;;16.63;8.10;;;7.90;70.70;;;;;;5006277;28;20053;-50
2021/03/17 09:30:41;;;;;;;14.18;7.10;;;8.70;70.80;;;;;;4987460;28;20158;-46
2021/03/17 09:33:17;;;;;;;12.88;3.75;;;9.70;67.90;;;;;;5005979;28;20050;-50
2021/03/17 09:35:48;;;;;;;11.45;2.22;;;10.50;65.00;;;;;;5007014;28;20049;-47
2021/03/17 09:38:16;;;;;;;10.93;2.25;;;11.30;62.90;;;;;;4996678;28;20052;-50
2021/03/17 09:40:55;;;;;;;11.10;5.35;;;11.40;59.90;;;;;;5005980;28;20046;-46
2021/03/17 09:43:26;;;;;;;;;;;12.30;57.20;;;;;;5007021;28;20129;-46
2021/03/17 09:45:52;;;;;;;11.48;3.42;;;13.10;55.30;;;;;;4983282;28;20016;-49
2021/03/17 09:48:18;;;;;;;10.63;5.70;;;13.10;53.60;;;;;;5007512;28;20195;-51
2021/03/17 09:50:45;;;;;;;10.80;3.15;;;13.30;56.80;;;;;;5007374;28;20114;-48
2021/03/17 09:53:17;;;;;;;41.05;34.22;;;13.60;53.90;;;;;;5001818;28;20054;-54
2021/03/17 09:55:45;;;;;;;9.25;2.05;;;13.90;55.50;;;;;;5006811;28;20061;-50
2021/03/17 09:58:14;;;;;;;12.57;4.40;;;13.50;48.70;;;;;;4992830;28;20404;-50
2021/03/17 10:00:41;;;;;;;7.43;1.63;;;12.50;52.60;;;;;;4988529;28;20050;-50
2021/03/17 10:03:12;;;;;;;7.28;2.75;;;11.20;51.60;;;;;;4990693;28;20172;-50
2021/03/17 10:05:39;;;;;;;6.03;1.63;;;11.40;57.40;;;;;;4986080;28;20054;-50
2021/03/17 10:08:13;;;;;;;9.60;4.85;;;11.60;55.70;;;;;;4988232;28;20402;-48
2021/03/17 10:10:41;;;;;;;23.63;14.40;;;11.30;56.50;;;;;;4987941;28;20046;-52
2021/03/17 10:13:07;;;;;;;13.45;8.80;;;11.80;57.10;;;;;;4965975;28;20054;-50
2021/03/17 10:15:33;;;;;;;14.40;8.85;;;12.30;56.70;;;;;;4984435;28;20054;-51
2021/03/17 10:17:59;;;;;;;194.95;160.25;;;11.90;56.20;;;;;;4990978;28;20042;-44
2021/03/17 10:20:30;;;;;;;17.75;10.73;;;12.10;55.80;;;;;;4993623;28;20109;-45
2021/03/17 10:22:58;;;;;;;33.45;24.30;;;12.50;55.90;;;;;;4985405;28;20057;-45
2021/03/17 10:25:32;;;;;;;41.42;31.85;;;12.90;55.30;;;;;;4984978;28;20050;-44
2021/03/17 10:28:04;;;;;;;19.00;11.90;;;13.30;53.20;;;;;;4989067;28;20039;-46
2021/03/17 10:30:52;;;;;;;21.25;14.32;;;14.20;52.20;;;;;;4983841;28;20067;-45
2021/03/17 10:33:22;;;;;;;12.00;8.07;;;14.10;48.00;;;;;;4984538;28;20050;-46
2021/03/17 10:35:50;;;;;;;10.55;5.10;;;14.20;48.90;;;;;;4985621;28;20117;-48
2021/03/17 10:38:16;;;;;;;10.30;5.07;;;14.80;47.60;;;;;;4993505;28;20550;-49
2021/03/17 10:40:42;;;;;;;8.90;3.30;;;14.50;49.00;;;;;;4985943;28;20050;-46
2021/03/17 10:43:13;;;;;;;8.55;3.05;;;14.50;49.90;;;;;;4985419;28;20475;-52
2021/03/17 10:45:47;;;;;;;7.78;2.33;;;13.60;46.90;;;;;;4982094;28;20324;-51
2021/03/17 10:48:15;;;;;;;90.00;74.80;;;12.20;47.40;;;;;;4987452;28;20038;-51
2021/03/17 10:50:43;;;;;;;15.15;8.90;;;12.80;52.60;;;;;;4985861;28;20091;-52
2021/03/17 10:53:23;;;;;;;33.38;23.95;;;13.20;52.10;;;;;;4981679;28;20104;-54
2021/03/17 10:55:49;;;;;;;22.45;14.88;;;12.90;50.20;;;;;;4984996;28;20153;-47
2021/03/17 10:58:18;;;;;;;12.70;4.90;;;12.10;52.30;;;;;;5002263;28;20054;-49
2021/03/17 11:00:49;;;;;;;18.13;11.32;;;11.70;52.30;;;;;;5007403;28;20041;-50
2021/03/17 11:03:41;;;;;;;11.63;5.60;;;11.40;52.50;;;;;;5007899;28;20120;-50
2021/03/17 11:06:14;;;;;;;;;;;12.50;51.30;;;;;;5003711;28;20521;-49
2021/03/17 11:08:44;;;;;;;12.82;6.93;;;12.60;49.10;;;;;;5008247;28;19945;-53
2021/03/17 11:11:14;;;;;;;18.08;12.68;;;12.60;50.30;;;;;;5007264;28;20080;-51
2021/03/17 11:13:49;;;;;;;7.70;3.28;;;12.60;51.10;;;;;;5009524;28;20129;-56
2021/03/17 11:16:28;;;;;;;12.77;7.35;;;12.20;50.30;;;;;;5009853;28;20057;-52
2021/03/17 11:19:10;;;;;;;10.90;3.38;;;11.60;49.80;;;;;;5005602;28;20057;-51
2021/03/17 11:21:45;;;;;;;5.10;1.17;;;11.50;50.40;;;;;;4997960;28;20603;-52
2021/03/17 11:24:19;;;;;;;9.10;3.17;;;10.80;50.50;;;;;;5008151;28;20119;-51
2021/03/17 11:26:51;;;;;;;8.55;2.00;;;10.80;51.10;;;;;;5004448;28;20121;-52
2021/03/17 11:29:18;;;;;;;5.00;1.50;;;11.00;51.70;;;;;;5005325;28;20490;-51
2021/03/17 11:31:49;;;;;;;5.60;1.50;;;12.00;50.50;;;;;;5004954;28;20046;-49
2021/03/17 11:34:20;;;;;;;5.80;1.50;;;12.60;48.90;;;;;;5006028;28;20058;-52
2021/03/17 11:36:49;;;;;;;7.35;1.90;;;12.60;49.70;;;;;;5006682;28;20133;-52
2021/03/17 11:39:18;;;;;;;13.80;2.63;;;12.40;47.70;;;;;;5005946;28;20046;-50
2021/03/17 11:41:48;;;;;;;4.78;1.25;;;12.00;47.20;;;;;;4987375;28;20493;-49
2021/03/17 11:44:19;;;;;;;7.70;2.92;;;11.60;48.20;;;;;;5003742;28;20133;-48
2021/03/17 11:46:45;;;;;;;9.10;3.03;;;10.60;48.20;;;;;;4982803;28;20422;-46
2021/03/17 11:49:14;;;;;;;7.85;3.38;;;10.50;50.40;;;;;;5003016;28;20505;-48
2021/03/17 11:51:41;;;;;;;6.28;3.05;;;10.10;50.40;;;;;;5005764;28;20064;-49
2021/03/17 11:54:07;;;;;;;7.07;2.75;;;10.80;51.20;;;;;;4987668;28;20046;-47
2021/03/17 11:56:32;;;;;;;5.93;2.53;;;11.30;49.50;;;;;;5005361;28;20183;-45
2021/03/17 11:58:58;;;;;;;11.50;5.85;;;11.90;48.00;;;;;;5005316;28;20562;-45
2021/03/17 12:01:25;;;;;;;6.45;3.38;;;12.00;48.20;;;;;;4986970;28;20045;-46
2021/03/17 12:03:50;;;;;;;7.32;2.65;;;12.10;48.20;;;;;;5001892;28;20097;-48
2021/03/17 12:06:16;;;;;;;6.57;2.15;;;12.40;47.20;;;;;;5006128;28;20405;-46
2021/03/17 12:08:43;;;;;;;7.85;3.50;;;12.50;46.20;;;;;;5005893;28;20093;-48
2021/03/17 12:11:08;;;;;;;3.83;1.17;;;12.40;47.10;;;;;;5006776;28;20049;-47
2021/03/17 12:13:34;;;;;;;9.25;2.40;;;12.80;46.60;;;;;;5005931;28;20077;-50
2021/03/17 12:16:00;;;;;;;4.55;1.38;;;12.80;46.00;;;;;;4988891;28;20295;-48
2021/03/17 12:18:26;;;;;;;3.88;2.13;;;13.30;45.10;;;;;;5004608;28;20119;-45
2021/03/17 12:20:52;;;;;;;5.70;1.88;;;13.10;45.50;;;;;;5007287;28;20065;-46
2021/03/17 12:23:18;;;;;;;5.35;1.73;;;12.30;45.00;;;;;;4988782;28;20050;-48
2021/03/17 12:25:47;;;;;;;8.63;2.90;;;11.90;46.90;;;;;;5006245;28;20046;-46
2021/03/17 12:28:14;;;;;;;6.47;1.95;;;11.70;47.70;;;;;;5005117;28;20149;-49
2021/03/17 12:30:40;;;;;;;6.65;1.98;;;12.00;47.70;;;;;;5010328;28;20049;-48
2021/03/17 12:33:06;;;;;;;7.18;2.42;;;12.10;48.50;;;;;;5008449;28;20050;-50
2021/03/17 12:35:36;;;;;;;4.50;1.15;;;11.40;47.80;;;;;;5011513;28;20042;-47
2021/03/17 12:38:02;;;;;;;7.65;1.80;;;11.70;47.60;;;;;;5010352;28;20037;-50
2021/03/17 12:40:29;;;;;;;5.65;1.67;;;11.80;47.70;;;;;;5009285;28;20077;-47
2021/03/17 12:42:56;;;;;;;6.40;1.48;;;11.90;47.20;;;;;;5011259;28;20063;-50
2021/03/17 12:45:25;;;;;;;5.15;1.67;;;12.00;47.20;;;;;;5007246;28;20153;-49
2021/03/17 12:47:51;;;;;;;7.78;1.90;;;12.50;45.80;;;;;;5008502;28;20490;-52
2021/03/17 12:50:19;;;;;;;5.20;2.10;;;12.30;45.60;;;;;;4991185;28;20038;-50
2021/03/17 12:52:45;;;;;;;5.97;1.35;;;11.90;46.90;;;;;;5004057;28;20116;-50
2021/03/17 12:55:12;;;;;;;3.25;1.20;;;11.30;47.60;;;;;;5013410;28;20128;-46
2021/03/17 12:57:38;;;;;;;4.28;1.23;;;11.70;48.50;;;;;;5009662;28;20208;-48
2021/03/17 13:00:13;;;;;;;4.68;1.15;;;12.40;48.40;;;;;;5007817;28;20046;-50
2021/03/17 13:02:39;;;;;;;3.08;0.88;;;12.10;46.90;;;;;;5007476;28;20073;-45